Terminal Aerodrome Forecast
Issued by NWS Los Angeles, CA

Home | Current Version | Previous Version | Text Only | Print | Product List | Glossary On
Versions: 1 2 3 4 5 6 7 8 9 10 11 12 13 14 15 16 17 18 19 20
059
FTUS46 KLOX 191306 AAA
TAFSMX
TAF AMD
KSMX 191306Z 1913/2012 VRB03KT 5SM BR OVC005
     FM191600 VRB03KT P6SM SKC
     FM191800 29008KT P6SM SCT250
     FM192000 31015KT P6SM SCT060 BKN150
     FM200100 30008KT P6SM BKN015 OVC100
     FM201000 31006KT P6SM -SHRA BKN025 OVC040=

USA.gov is the U.S. government's official web portal to all federal, state and local government web resources and services.